createdAt,value
2023-01-12T00:02:06.661Z,73.70
2023-01-12T00:05:09.832Z,70.20
2023-01-12T00:08:12.140Z,71.93
2023-01-12T00:11:15.208Z,71.30
2023-01-12T00:14:17.580Z,64.18
2023-01-12T00:17:19.841Z,62.28
2023-01-12T00:20:22.098Z,64.80
2023-01-12T00:23:26.176Z,70.72
2023-01-12T00:26:28.494Z,71.95
2023-01-12T00:29:30.682Z,67.13
2023-01-12T00:32:32.878Z,68.53
2023-01-12T00:35:38.151Z,64.37
2023-01-12T00:38:40.464Z,67.45
2023-01-12T00:42:02.189Z,60.50
2023-01-12T00:45:22.818Z,71.88
2023-01-12T00:48:25.122Z,56.80
2023-01-12T00:51:27.351Z,60.53
2023-01-12T00:54:29.858Z,61.13
2023-01-12T00:57:32.167Z,60.92
2023-01-12T01:00:34.438Z,64.97
2023-01-12T01:03:36.643Z,72.88
2023-01-12T01:06:39.052Z,62.60
2023-01-12T01:09:41.266Z,81.80
2023-01-12T01:12:43.493Z,86.18
2023-01-12T01:15:45.742Z,89.32
2023-01-12T01:18:48.163Z,101.10
2023-01-12T01:21:50.432Z,107.20
2023-01-12T01:24:52.687Z,118.65
2023-01-12T01:27:54.996Z,125.05
2023-01-12T01:31:02.901Z,131.75
2023-01-12T01:34:05.179Z,135.18
2023-01-12T01:37:07.651Z,113.60
2023-01-12T01:40:10.209Z,124.68
2023-01-12T01:43:16.596Z,133.15
2023-01-12T01:46:27.531Z,116.88
2023-01-12T01:49:45.409Z,134.23
2023-01-12T01:52:53.788Z,118.07
2023-01-12T01:56:02.774Z,130.23
2023-01-12T01:59:10.258Z,121.32
2023-01-12T02:02:12.663Z,118.28
2023-01-12T02:05:18.787Z,123.85
2023-01-12T02:08:39.836Z,116.70
2023-01-12T02:12:01.202Z,110.47
2023-01-12T02:15:22.719Z,105.47
2023-01-12T02:18:40.387Z,108.32
2023-01-12T02:21:54.820Z,99.03
2023-01-12T02:25:06.159Z,108.87
2023-01-12T02:28:17.587Z,107.30
2023-01-12T02:31:23.556Z,99.68
2023-01-12T02:34:44.568Z,105.53
2023-01-12T02:37:56.021Z,126.53
2023-01-12T02:41:16.841Z,112.40
2023-01-12T02:44:38.838Z,104.30
2023-01-12T02:47:56.646Z,106.65
2023-01-12T02:51:14.482Z,116.35
2023-01-12T02:54:19.073Z,117.20
2023-01-12T02:57:22.896Z,117.70
2023-01-12T03:00:26.079Z,122.13
2023-01-12T03:03:28.340Z,126.55
2023-01-12T03:06:57.068Z,119.88
2023-01-12T03:10:18.274Z,120.88
2023-01-12T03:13:20.763Z,122.27
2023-01-12T03:16:24.799Z,110.45
2023-01-12T03:19:31.785Z,101.93
2023-01-12T03:22:36.564Z,108.70
2023-01-12T03:25:40.152Z,102.43
2023-01-12T03:28:45.706Z,109.97
2023-01-12T03:31:48.205Z,114.28
2023-01-12T03:34:50.486Z,117.00
2023-01-12T03:38:12.979Z,126.25
2023-01-12T03:41:25.920Z,118.78
2023-01-12T03:44:40.364Z,124.57
2023-01-12T03:47:43.611Z,119.28
2023-01-12T03:50:52.018Z,119.03
2023-01-12T03:53:55.208Z,125.13
2023-01-12T03:56:58.431Z,133.90
2023-01-12T04:00:01.092Z,129.50
2023-01-12T04:03:04.471Z,125.75
2023-01-12T04:06:08.399Z,125.35
2023-01-12T04:09:10.680Z,126.75
2023-01-12T04:12:13.342Z,116.32
2023-01-12T04:15:15.621Z,128.20
2023-01-12T04:18:17.860Z,108.03
2023-01-12T04:21:38.811Z,113.78
2023-01-12T04:24:41.150Z,114.47
2023-01-12T04:27:53.905Z,118.10
2023-01-12T04:30:56.530Z,121.77
2023-01-12T04:33:58.834Z,118.38
2023-01-12T04:37:02.585Z,111.10
2023-01-12T04:40:05.494Z,116.78
2023-01-12T04:43:10.023Z,120.13
2023-01-12T04:46:12.304Z,114.03
2023-01-12T04:49:14.561Z,113.10
2023-01-12T04:52:16.738Z,109.65
2023-01-12T04:55:19.358Z,106.63
2023-01-12T04:58:21.939Z,114.88
2023-01-12T05:01:24.338Z,118.27
2023-01-12T05:04:26.848Z,115.43
2023-01-12T05:07:29.185Z,113.70
2023-01-12T05:10:31.468Z,113.60
2023-01-12T05:13:33.714Z,101.25
2023-01-12T05:16:36.024Z,109.23
2023-01-12T05:19:38.284Z,98.57
2023-01-12T05:22:40.575Z,104.38
2023-01-12T05:25:43.184Z,105.25
2023-01-12T05:28:47.543Z,110.43
2023-01-12T05:31:50.189Z,106.50
2023-01-12T05:34:52.455Z,106.75
2023-01-12T05:37:55.668Z,107.20
2023-01-12T05:41:01.596Z,108.28
2023-01-12T05:44:03.885Z,105.80
2023-01-12T05:47:06.067Z,93.93
2023-01-12T05:50:08.677Z,97.95
2023-01-12T05:53:11.256Z,107.25
2023-01-12T05:56:16.443Z,101.40
2023-01-12T05:59:18.770Z,106.68
2023-01-12T06:02:21.714Z,104.77
2023-01-12T06:05:24.031Z,109.40
2023-01-12T06:08:26.326Z,109.93
2023-01-12T06:11:47.347Z,105.68
2023-01-12T06:14:49.587Z,105.90
2023-01-12T06:17:51.806Z,99.67
2023-01-12T06:20:54.088Z,108.30
2023-01-12T06:23:56.640Z,102.22
2023-01-12T06:26:59.212Z,104.35
2023-01-12T06:30:01.674Z,105.97
2023-01-12T06:33:04.180Z,96.20
2023-01-12T06:36:07.860Z,108.07
2023-01-12T06:39:11.699Z,108.32
2023-01-12T06:42:29.242Z,125.97
2023-01-12T06:45:31.669Z,113.63
2023-01-12T06:48:39.601Z,106.20
2023-01-12T06:51:44.761Z,104.20
2023-01-12T06:54:49.808Z,97.25
2023-01-12T06:57:52.797Z,96.65
2023-01-12T07:01:00.601Z,91.95
2023-01-12T07:04:06.245Z,87.17
2023-01-12T07:07:09.317Z,89.47
2023-01-12T07:10:12.449Z,105.38
2023-01-12T07:13:16.736Z,104.68
2023-01-12T07:16:21.125Z,84.88
2023-01-12T07:19:23.598Z,80.87
2023-01-12T07:22:27.131Z,70.00
2023-01-12T07:25:30.089Z,67.43
2023-01-12T07:28:33.878Z,64.72
2023-01-12T07:31:36.412Z,69.18
2023-01-12T07:34:38.733Z,59.37
2023-01-12T07:37:46.815Z,60.85
2023-01-12T07:40:49.096Z,58.60
2023-01-12T07:43:51.391Z,60.15
2023-01-12T07:46:56.312Z,69.10
2023-01-12T07:50:03.489Z,62.37
2023-01-12T07:53:06.024Z,63.05
2023-01-12T07:56:10.327Z,61.50
2023-01-12T07:59:13.139Z,64.15
2023-01-12T08:02:19.403Z,64.30
2023-01-12T08:05:22.645Z,54.83
2023-01-12T08:08:27.219Z,60.38
2023-01-12T08:11:30.639Z,67.18
2023-01-12T08:14:37.748Z,69.80
2023-01-12T08:17:43.050Z,53.88
2023-01-12T08:20:45.582Z,46.20
2023-01-12T08:23:50.294Z,49.08
2023-01-12T08:26:53.803Z,44.58
